sensor_id;sensor_type;location;lat;lon;timestamp;P1;durP1;ratioP1;P2;durP2;ratioP2
74920;SDS011;63483;47.384;8.860;2022-10-30T00:00:10;10.87;;;4.13;;
74920;SDS011;63483;47.384;8.860;2022-10-30T00:02:36;13.70;;;4.40;;
74920;SDS011;63483;47.384;8.860;2022-10-30T00:05:01;7.93;;;4.57;;
74920;SDS011;63483;47.384;8.860;2022-10-30T00:07:27;9.90;;;4.67;;
74920;SDS011;63483;47.384;8.860;2022-10-30T00:09:52;7.97;;;2.47;;
74920;SDS011;63483;47.384;8.860;2022-10-30T00:12:18;10.60;;;2.57;;
74920;SDS011;63483;47.384;8.860;2022-10-30T00:14:43;6.40;;;2.83;;
74920;SDS011;63483;47.384;8.860;2022-10-30T00:17:08;8.53;;;2.57;;
74920;SDS011;63483;47.384;8.860;2022-10-30T00:19:34;6.53;;;2.80;;
74920;SDS011;63483;47.384;8.860;2022-10-30T00:21:59;11.57;;;2.77;;
74920;SDS011;63483;47.384;8.860;2022-10-30T00:24:26;10.50;;;2.63;;
74920;SDS011;63483;47.384;8.860;2022-10-30T00:26:52;9.73;;;2.67;;
74920;SDS011;63483;47.384;8.860;2022-10-30T00:29:18;5.57;;;2.53;;
74920;SDS011;63483;47.384;8.860;2022-10-30T00:31:43;8.60;;;2.87;;
74920;SDS011;63483;47.384;8.860;2022-10-30T00:34:09;6.90;;;2.47;;
74920;SDS011;63483;47.384;8.860;2022-10-30T00:36:34;5.83;;;2.80;;
74920;SDS011;63483;47.384;8.860;2022-10-30T00:38:59;8.02;;;2.13;;
74920;SDS011;63483;47.384;8.860;2022-10-30T00:41:25;5.83;;;2.30;;
74920;SDS011;63483;47.384;8.860;2022-10-30T00:43:50;9.87;;;2.37;;
74920;SDS011;63483;47.384;8.860;2022-10-30T00:46:36;10.10;;;2.97;;
74920;SDS011;63483;47.384;8.860;2022-10-30T00:49:16;7.90;;;2.77;;
74920;SDS011;63483;47.384;8.860;2022-10-30T00:51:49;7.78;;;2.20;;
74920;SDS011;63483;47.384;8.860;2022-10-30T00:54:18;7.93;;;2.08;;
74920;SDS011;63483;47.384;8.860;2022-10-30T00:56:45;6.15;;;2.30;;
74920;SDS011;63483;47.384;8.860;2022-10-30T00:59:15;7.25;;;2.35;;
74920;SDS011;63483;47.384;8.860;2022-10-30T01:01:46;7.90;;;2.40;;
74920;SDS011;63483;47.384;8.860;2022-10-30T01:04:12;8.30;;;3.33;;
74920;SDS011;63483;47.384;8.860;2022-10-30T01:06:40;11.75;;;3.63;;
74920;SDS011;63483;47.384;8.860;2022-10-30T01:09:08;9.37;;;2.63;;
74920;SDS011;63483;47.384;8.860;2022-10-30T01:11:34;10.30;;;2.65;;
74920;SDS011;63483;47.384;8.860;2022-10-30T01:14:00;10.07;;;2.63;;
74920;SDS011;63483;47.384;8.860;2022-10-30T01:21:35;12.82;;;3.33;;
74920;SDS011;63483;47.384;8.860;2022-10-30T01:24:24;12.00;;;5.18;;
74920;SDS011;63483;47.384;8.860;2022-10-30T01:35:22;9.70;;;2.67;;
74920;SDS011;63483;47.384;8.860;2022-10-30T01:37:56;8.07;;;2.83;;
74920;SDS011;63483;47.384;8.860;2022-10-30T01:40:39;7.60;;;2.00;;
74920;SDS011;63483;47.384;8.860;2022-10-30T01:43:08;9.05;;;3.65;;
74920;SDS011;63483;47.384;8.860;2022-10-30T01:59:52;7.22;;;2.33;;
74920;SDS011;63483;47.384;8.860;2022-10-30T02:02:23;7.32;;;1.83;;
74920;SDS011;63483;47.384;8.860;2022-10-30T02:04:49;7.50;;;2.57;;
74920;SDS011;63483;47.384;8.860;2022-10-30T02:07:15;7.55;;;2.55;;
74920;SDS011;63483;47.384;8.860;2022-10-30T02:09:40;5.13;;;2.37;;
74920;SDS011;63483;47.384;8.860;2022-10-30T02:12:06;8.38;;;2.30;;
74920;SDS011;63483;47.384;8.860;2022-10-30T02:14:34;9.23;;;2.70;;
74920;SDS011;63483;47.384;8.860;2022-10-30T02:17:03;5.07;;;1.90;;
74920;SDS011;63483;47.384;8.860;2022-10-30T02:19:30;7.00;;;2.10;;
74920;SDS011;63483;47.384;8.860;2022-10-30T02:21:56;9.17;;;2.50;;
74920;SDS011;63483;47.384;8.860;2022-10-30T02:24:21;7.03;;;2.08;;
74920;SDS011;63483;47.384;8.860;2022-10-30T02:26:47;5.27;;;1.63;;
74920;SDS011;63483;47.384;8.860;2022-10-30T02:29:12;8.83;;;2.30;;
74920;SDS011;63483;47.384;8.860;2022-10-30T02:31:37;6.90;;;1.97;;
74920;SDS011;63483;47.384;8.860;2022-10-30T02:34:03;6.37;;;2.13;;
74920;SDS011;63483;47.384;8.860;2022-10-30T02:36:29;4.70;;;1.88;;
74920;SDS011;63483;47.384;8.860;2022-10-30T02:38:54;9.63;;;2.27;;
74920;SDS011;63483;47.384;8.860;2022-10-30T02:41:20;8.10;;;2.13;;
74920;SDS011;63483;47.384;8.860;2022-10-30T02:43:49;6.95;;;1.48;;
74920;SDS011;63483;47.384;8.860;2022-10-30T02:46:16;5.22;;;2.15;;
74920;SDS011;63483;47.384;8.860;2022-10-30T02:48:41;9.13;;;2.27;;
74920;SDS011;63483;47.384;8.860;2022-10-30T02:51:06;7.47;;;1.80;;
74920;SDS011;63483;47.384;8.860;2022-10-30T02:53:32;5.20;;;1.87;;
74920;SDS011;63483;47.384;8.860;2022-10-30T02:56:05;5.72;;;2.72;;
74920;SDS011;63483;47.384;8.860;2022-10-30T02:58:35;12.23;;;3.15;;
74920;SDS011;63483;47.384;8.860;2022-10-30T03:01:14;9.83;;;2.63;;
74920;SDS011;63483;47.384;8.860;2022-10-30T03:03:41;7.00;;;2.30;;
74920;SDS011;63483;47.384;8.860;2022-10-30T03:06:07;8.13;;;1.92;;
74920;SDS011;63483;47.384;8.860;2022-10-30T03:08:34;7.60;;;1.50;;
74920;SDS011;63483;47.384;8.860;2022-10-30T03:11:10;8.15;;;2.05;;
74920;SDS011;63483;47.384;8.860;2022-10-30T03:13:39;4.88;;;1.70;;
74920;SDS011;63483;47.384;8.860;2022-10-30T03:16:06;7.40;;;1.80;;
74920;SDS011;63483;47.384;8.860;2022-10-30T03:18:34;6.55;;;2.10;;
74920;SDS011;63483;47.384;8.860;2022-10-30T03:21:01;6.20;;;1.80;;
74920;SDS011;63483;47.384;8.860;2022-10-30T03:23:29;5.45;;;1.63;;
74920;SDS011;63483;47.384;8.860;2022-10-30T03:25:55;7.95;;;1.92;;
74920;SDS011;63483;47.384;8.860;2022-10-30T03:28:22;8.15;;;2.83;;
74920;SDS011;63483;47.384;8.860;2022-10-30T03:30:49;10.67;;;2.23;;
74920;SDS011;63483;47.384;8.860;2022-10-30T03:33:15;8.80;;;2.00;;
74920;SDS011;63483;47.384;8.860;2022-10-30T03:35:42;4.97;;;1.90;;
74920;SDS011;63483;47.384;8.860;2022-10-30T03:38:09;5.78;;;1.70;;
74920;SDS011;63483;47.384;8.860;2022-10-30T03:40:34;6.57;;;2.08;;
74920;SDS011;63483;47.384;8.860;2022-10-30T03:43:00;7.83;;;2.37;;
74920;SDS011;63483;47.384;8.860;2022-10-30T03:45:25;10.57;;;2.37;;
74920;SDS011;63483;47.384;8.860;2022-10-30T03:47:50;10.00;;;2.53;;
74920;SDS011;63483;47.384;8.860;2022-10-30T03:50:15;10.27;;;2.23;;
74920;SDS011;63483;47.384;8.860;2022-10-30T03:52:41;8.10;;;2.27;;
74920;SDS011;63483;47.384;8.860;2022-10-30T03:55:06;7.90;;;2.07;;
74920;SDS011;63483;47.384;8.860;2022-10-30T03:57:35;8.60;;;2.50;;
74920;SDS011;63483;47.384;8.860;2022-10-30T04:00:01;8.38;;;2.38;;
74920;SDS011;63483;47.384;8.860;2022-10-30T04:02:26;7.67;;;2.20;;
74920;SDS011;63483;47.384;8.860;2022-10-30T04:04:51;6.73;;;2.30;;
74920;SDS011;63483;47.384;8.860;2022-10-30T04:07:17;7.10;;;2.60;;
74920;SDS011;63483;47.384;8.860;2022-10-30T04:09:42;8.30;;;2.73;;
74920;SDS011;63483;47.384;8.860;2022-10-30T04:12:07;7.60;;;2.20;;
74920;SDS011;63483;47.384;8.860;2022-10-30T04:14:32;7.13;;;2.50;;
74920;SDS011;63483;47.384;8.860;2022-10-30T04:16:58;8.97;;;2.57;;
74920;SDS011;63483;47.384;8.860;2022-10-30T04:19:23;10.70;;;2.60;;
74920;SDS011;63483;47.384;8.860;2022-10-30T04:21:48;10.73;;;2.67;;
74920;SDS011;63483;47.384;8.860;2022-10-30T04:24:15;7.13;;;1.83;;
74920;SDS011;63483;47.384;8.860;2022-10-30T04:26:42;5.72;;;1.33;;
74920;SDS011;63483;47.384;8.860;2022-10-30T04:29:08;7.40;;;1.90;;
74920;SDS011;63483;47.384;8.860;2022-10-30T04:31:33;9.07;;;1.83;;
74920;SDS011;63483;47.384;8.860;2022-10-30T04:33:58;6.60;;;1.70;;
74920;SDS011;63483;47.384;8.860;2022-10-30T04:36:24;7.07;;;1.90;;
74920;SDS011;63483;47.384;8.860;2022-10-30T04:38:54;5.60;;;1.85;;
74920;SDS011;63483;47.384;8.860;2022-10-30T04:41:20;6.80;;;1.97;;
74920;SDS011;63483;47.384;8.860;2022-10-30T04:43:47;6.47;;;2.13;;
74920;SDS011;63483;47.384;8.860;2022-10-30T04:46:13;7.28;;;2.47;;
74920;SDS011;63483;47.384;8.860;2022-10-30T04:48:38;10.00;;;1.40;;
74920;SDS011;63483;47.384;8.860;2022-10-30T04:51:04;5.07;;;1.63;;
74920;SDS011;63483;47.384;8.860;2022-10-30T04:53:31;6.72;;;1.75;;
74920;SDS011;63483;47.384;8.860;2022-10-30T04:55:56;4.90;;;1.67;;
74920;SDS011;63483;47.384;8.860;2022-10-30T04:58:21;7.93;;;2.33;;
74920;SDS011;63483;47.384;8.860;2022-10-30T05:00:47;5.90;;;1.93;;
74920;SDS011;63483;47.384;8.860;2022-10-30T05:03:19;6.43;;;1.83;;
74920;SDS011;63483;47.384;8.860;2022-10-30T05:08:31;12.10;;;2.67;;
74920;SDS011;63483;47.384;8.860;2022-10-30T05:10:57;6.87;;;1.93;;
74920;SDS011;63483;47.384;8.860;2022-10-30T05:13:23;7.07;;;1.73;;
74920;SDS011;63483;47.384;8.860;2022-10-30T05:15:48;7.37;;;2.13;;
74920;SDS011;63483;47.384;8.860;2022-10-30T05:18:14;9.67;;;2.20;;
74920;SDS011;63483;47.384;8.860;2022-10-30T05:20:39;4.40;;;1.77;;
74920;SDS011;63483;47.384;8.860;2022-10-30T05:23:05;6.10;;;2.47;;
74920;SDS011;63483;47.384;8.860;2022-10-30T05:25:31;7.38;;;1.98;;
74920;SDS011;63483;47.384;8.860;2022-10-30T05:28:02;6.07;;;2.37;;
74920;SDS011;63483;47.384;8.860;2022-10-30T05:30:30;11.85;;;2.05;;
74920;SDS011;63483;47.384;8.860;2022-10-30T05:32:56;7.43;;;1.35;;
74920;SDS011;63483;47.384;8.860;2022-10-30T05:35:23;7.07;;;1.67;;
74920;SDS011;63483;47.384;8.860;2022-10-30T05:37:49;6.30;;;1.23;;
74920;SDS011;63483;47.384;8.860;2022-10-30T05:40:14;7.50;;;1.83;;
74920;SDS011;63483;47.384;8.860;2022-10-30T05:42:46;8.10;;;2.40;;
74920;SDS011;63483;47.384;8.860;2022-10-30T05:45:14;6.55;;;1.90;;
74920;SDS011;63483;47.384;8.860;2022-10-30T05:47:40;8.48;;;2.10;;
74920;SDS011;63483;47.384;8.860;2022-10-30T05:50:06;4.80;;;2.03;;
74920;SDS011;63483;47.384;8.860;2022-10-30T05:52:32;5.95;;;1.60;;
74920;SDS011;63483;47.384;8.860;2022-10-30T05:54:57;9.47;;;2.20;;
74920;SDS011;63483;47.384;8.860;2022-10-30T05:57:23;9.33;;;2.47;;
74920;SDS011;63483;47.384;8.860;2022-10-30T05:59:48;9.85;;;1.42;;
74920;SDS011;63483;47.384;8.860;2022-10-30T06:02:15;6.03;;;2.00;;
74920;SDS011;63483;47.384;8.860;2022-10-30T06:04:41;7.97;;;2.17;;
74920;SDS011;63483;47.384;8.860;2022-10-30T06:07:06;7.53;;;2.47;;
74920;SDS011;63483;47.384;8.860;2022-10-30T06:09:31;5.63;;;2.20;;
74920;SDS011;63483;47.384;8.860;2022-10-30T06:11:57;6.87;;;1.83;;
74920;SDS011;63483;47.384;8.860;2022-10-30T06:14:22;6.13;;;1.73;;
74920;SDS011;63483;47.384;8.860;2022-10-30T06:16:48;5.77;;;1.90;;
74920;SDS011;63483;47.384;8.860;2022-10-30T06:19:13;5.97;;;2.17;;
74920;SDS011;63483;47.384;8.860;2022-10-30T06:21:38;7.17;;;2.23;;
74920;SDS011;63483;47.384;8.860;2022-10-30T06:24:04;7.80;;;1.80;;
74920;SDS011;63483;47.384;8.860;2022-10-30T06:26:30;4.85;;;1.45;;
74920;SDS011;63483;47.384;8.860;2022-10-30T06:28:55;7.67;;;1.80;;
74920;SDS011;63483;47.384;8.860;2022-10-30T06:31:20;5.20;;;1.90;;
74920;SDS011;63483;47.384;8.860;2022-10-30T06:33:46;7.77;;;2.20;;
74920;SDS011;63483;47.384;8.860;2022-10-30T06:36:11;7.43;;;2.00;;
74920;SDS011;63483;47.384;8.860;2022-10-30T06:38:36;4.53;;;2.03;;
74920;SDS011;63483;47.384;8.860;2022-10-30T06:41:02;9.00;;;1.33;;
74920;SDS011;63483;47.384;8.860;2022-10-30T06:43:27;6.20;;;1.93;;
74920;SDS011;63483;47.384;8.860;2022-10-30T06:45:52;8.90;;;1.67;;
74920;SDS011;63483;47.384;8.860;2022-10-30T06:48:18;9.17;;;2.17;;
74920;SDS011;63483;47.384;8.860;2022-10-30T06:50:43;5.37;;;2.00;;
74920;SDS011;63483;47.384;8.860;2022-10-30T06:53:08;9.40;;;2.73;;
74920;SDS011;63483;47.384;8.860;2022-10-30T06:55:34;7.23;;;2.10;;
74920;SDS011;63483;47.384;8.860;2022-10-30T06:57:59;10.70;;;2.33;;
74920;SDS011;63483;47.384;8.860;2022-10-30T07:00:24;4.93;;;1.97;;
74920;SDS011;63483;47.384;8.860;2022-10-30T07:02:59;6.50;;;1.93;;
74920;SDS011;63483;47.384;8.860;2022-10-30T07:05:25;8.73;;;2.00;;
74920;SDS011;63483;47.384;8.860;2022-10-30T07:07:51;5.45;;;2.50;;
74920;SDS011;63483;47.384;8.860;2022-10-30T07:10:16;7.07;;;2.20;;
74920;SDS011;63483;47.384;8.860;2022-10-30T07:12:49;6.05;;;2.45;;
74920;SDS011;63483;47.384;8.860;2022-10-30T07:15:16;5.75;;;2.20;;
74920;SDS011;63483;47.384;8.860;2022-10-30T07:17:41;6.87;;;2.23;;
74920;SDS011;63483;47.384;8.860;2022-10-30T07:20:07;7.10;;;2.53;;
74920;SDS011;63483;47.384;8.860;2022-10-30T07:22:36;6.30;;;2.50;;
74920;SDS011;63483;47.384;8.860;2022-10-30T07:25:03;8.00;;;2.47;;
74920;SDS011;63483;47.384;8.860;2022-10-30T07:27:28;5.13;;;2.10;;
74920;SDS011;63483;47.384;8.860;2022-10-30T07:29:53;7.00;;;2.40;;
74920;SDS011;63483;47.384;8.860;2022-10-30T07:32:19;8.10;;;3.20;;
74920;SDS011;63483;47.384;8.860;2022-10-30T07:34:44;9.87;;;3.27;;
74920;SDS011;63483;47.384;8.860;2022-10-30T07:37:09;10.23;;;3.13;;
74920;SDS011;63483;47.384;8.860;2022-10-30T07:39:35;8.13;;;3.13;;
74920;SDS011;63483;47.384;8.860;2022-10-30T07:42:00;8.65;;;2.92;;
74920;SDS011;63483;47.384;8.860;2022-10-30T07:44:25;6.23;;;2.80;;
74920;SDS011;63483;47.384;8.860;2022-10-30T07:46:51;7.70;;;2.93;;
74920;SDS011;63483;47.384;8.860;2022-10-30T07:49:16;5.87;;;3.50;;
74920;SDS011;63483;47.384;8.860;2022-10-30T07:51:41;8.63;;;3.93;;
74920;SDS011;63483;47.384;8.860;2022-10-30T07:54:07;10.13;;;4.27;;
74920;SDS011;63483;47.384;8.860;2022-10-30T07:56:32;9.97;;;4.03;;
74920;SDS011;63483;47.384;8.860;2022-10-30T07:58:57;7.77;;;3.57;;
74920;SDS011;63483;47.384;8.860;2022-10-30T08:01:23;10.80;;;4.23;;
74920;SDS011;63483;47.384;8.860;2022-10-30T08:03:48;14.23;;;4.20;;
74920;SDS011;63483;47.384;8.860;2022-10-30T08:06:13;9.23;;;4.00;;
74920;SDS011;63483;47.384;8.860;2022-10-30T08:08:39;7.77;;;5.00;;
74920;SDS011;63483;47.384;8.860;2022-10-30T08:11:04;11.93;;;3.90;;
74920;SDS011;63483;47.384;8.860;2022-10-30T08:13:29;8.13;;;4.30;;
74920;SDS011;63483;47.384;8.860;2022-10-30T08:15:55;8.47;;;3.30;;
74920;SDS011;63483;47.384;8.860;2022-10-30T08:18:20;7.07;;;3.43;;
74920;SDS011;63483;47.384;8.860;2022-10-30T08:20:48;7.22;;;4.10;;
74920;SDS011;63483;47.384;8.860;2022-10-30T08:23:14;11.63;;;4.07;;
74920;SDS011;63483;47.384;8.860;2022-10-30T08:25:41;9.25;;;3.75;;
74920;SDS011;63483;47.384;8.860;2022-10-30T08:28:07;8.68;;;3.60;;
74920;SDS011;63483;47.384;8.860;2022-10-30T08:30:33;10.20;;;4.07;;
74920;SDS011;63483;47.384;8.860;2022-10-30T08:33:05;8.95;;;4.43;;
74920;SDS011;63483;47.384;8.860;2022-10-30T08:35:32;7.90;;;4.03;;
74920;SDS011;63483;47.384;8.860;2022-10-30T08:37:58;8.38;;;3.67;;
74920;SDS011;63483;47.384;8.860;2022-10-30T08:40:25;10.43;;;3.57;;
74920;SDS011;63483;47.384;8.860;2022-10-30T08:42:51;7.55;;;4.03;;
74920;SDS011;63483;47.384;8.860;2022-10-30T08:45:18;8.85;;;3.70;;
74920;SDS011;63483;47.384;8.860;2022-10-30T08:47:44;9.73;;;3.85;;
74920;SDS011;63483;47.384;8.860;2022-10-30T08:50:09;10.13;;;4.10;;
74920;SDS011;63483;47.384;8.860;2022-10-30T08:52:35;9.17;;;4.37;;
74920;SDS011;63483;47.384;8.860;2022-10-30T08:55:00;9.10;;;4.30;;
74920;SDS011;63483;47.384;8.860;2022-10-30T08:57:26;10.77;;;4.73;;
74920;SDS011;63483;47.384;8.860;2022-10-30T08:59:51;9.13;;;5.05;;
74920;SDS011;63483;47.384;8.860;2022-10-30T09:02:16;9.03;;;4.63;;
74920;SDS011;63483;47.384;8.860;2022-10-30T09:04:42;7.57;;;3.90;;
74920;SDS011;63483;47.384;8.860;2022-10-30T09:07:07;11.47;;;5.50;;
74920;SDS011;63483;47.384;8.860;2022-10-30T09:09:32;9.27;;;5.73;;
74920;SDS011;63483;47.384;8.860;2022-10-30T09:11:58;12.03;;;6.63;;
74920;SDS011;63483;47.384;8.860;2022-10-30T09:14:23;13.73;;;6.93;;
74920;SDS011;63483;47.384;8.860;2022-10-30T09:16:48;14.00;;;6.40;;
74920;SDS011;63483;47.384;8.860;2022-10-30T09:19:13;13.77;;;6.20;;
74920;SDS011;63483;47.384;8.860;2022-10-30T09:21:39;10.53;;;5.87;;
74920;SDS011;63483;47.384;8.860;2022-10-30T09:24:04;13.07;;;6.53;;
74920;SDS011;63483;47.384;8.860;2022-10-30T09:26:30;11.40;;;5.70;;
74920;SDS011;63483;47.384;8.860;2022-10-30T09:28:55;12.63;;;5.67;;
74920;SDS011;63483;47.384;8.860;2022-10-30T09:31:20;10.93;;;4.53;;
74920;SDS011;63483;47.384;8.860;2022-10-30T09:33:46;10.23;;;3.83;;
74920;SDS011;63483;47.384;8.860;2022-10-30T09:36:11;12.17;;;5.30;;
74920;SDS011;63483;47.384;8.860;2022-10-30T09:38:36;7.63;;;4.10;;
74920;SDS011;63483;47.384;8.860;2022-10-30T09:41:24;11.97;;;4.60;;
74920;SDS011;63483;47.384;8.860;2022-10-30T09:46:46;7.57;;;3.33;;
74920;SDS011;63483;47.384;8.860;2022-10-30T09:49:28;7.03;;;3.10;;
74920;SDS011;63483;47.384;8.860;2022-10-30T10:00:12;8.65;;;2.65;;
74920;SDS011;63483;47.384;8.860;2022-10-30T10:05:28;10.23;;;3.05;;
74920;SDS011;63483;47.384;8.860;2022-10-30T10:08:04;8.75;;;3.15;;
74920;SDS011;63483;47.384;8.860;2022-10-30T10:10:41;7.72;;;2.08;;
74920;SDS011;63483;47.384;8.860;2022-10-30T10:13:31;9.13;;;2.65;;
74920;SDS011;63483;47.384;8.860;2022-10-30T10:16:06;9.93;;;3.70;;
74920;SDS011;63483;47.384;8.860;2022-10-30T10:18:40;9.95;;;3.75;;
74920;SDS011;63483;47.384;8.860;2022-10-30T10:21:22;7.57;;;3.15;;
74920;SDS011;63483;47.384;8.860;2022-10-30T10:24:02;10.15;;;3.15;;
74920;SDS011;63483;47.384;8.860;2022-10-30T10:26:29;8.68;;;2.90;;
74920;SDS011;63483;47.384;8.860;2022-10-30T10:31:59;9.52;;;2.92;;
74920;SDS011;63483;47.384;8.860;2022-10-30T10:37:27;9.57;;;3.15;;
74920;SDS011;63483;47.384;8.860;2022-10-30T10:40:02;10.27;;;4.13;;
74920;SDS011;63483;47.384;8.860;2022-10-30T10:50:35;5.50;;;2.90;;
74920;SDS011;63483;47.384;8.860;2022-10-30T10:53:10;10.20;;;3.08;;
74920;SDS011;63483;47.384;8.860;2022-10-30T10:55:45;7.90;;;2.70;;
74920;SDS011;63483;47.384;8.860;2022-10-30T11:01:03;9.70;;;3.30;;
74920;SDS011;63483;47.384;8.860;2022-10-30T11:06:20;11.88;;;3.10;;
74920;SDS011;63483;47.384;8.860;2022-10-30T11:08:48;7.53;;;2.83;;
74920;SDS011;63483;47.384;8.860;2022-10-30T11:11:17;9.20;;;4.07;;
74920;SDS011;63483;47.384;8.860;2022-10-30T11:13:42;10.17;;;2.87;;
74920;SDS011;63483;47.384;8.860;2022-10-30T11:16:26;9.88;;;2.83;;
74920;SDS011;63483;47.384;8.860;2022-10-30T11:19:00;8.93;;;2.60;;
74920;SDS011;63483;47.384;8.860;2022-10-30T11:21:29;10.48;;;2.72;;
74920;SDS011;63483;47.384;8.860;2022-10-30T11:23:59;7.20;;;2.05;;
74920;SDS011;63483;47.384;8.860;2022-10-30T11:26:25;10.40;;;2.83;;
74920;SDS011;63483;47.384;8.860;2022-10-30T11:31:19;9.33;;;2.60;;
74920;SDS011;63483;47.384;8.860;2022-10-30T11:33:48;11.68;;;3.05;;
74920;SDS011;63483;47.384;8.860;2022-10-30T11:36:15;10.40;;;2.90;;
74920;SDS011;63483;47.384;8.860;2022-10-30T11:38:42;10.60;;;2.47;;
74920;SDS011;63483;47.384;8.860;2022-10-30T11:41:08;7.43;;;3.53;;
74920;SDS011;63483;47.384;8.860;2022-10-30T11:43:37;8.63;;;2.45;;
74920;SDS011;63483;47.384;8.860;2022-10-30T11:46:05;6.47;;;2.60;;
74920;SDS011;63483;47.384;8.860;2022-10-30T11:48:36;9.60;;;2.65;;
74920;SDS011;63483;47.384;8.860;2022-10-30T11:51:04;9.40;;;2.50;;
74920;SDS011;63483;47.384;8.860;2022-10-30T11:53:31;7.78;;;2.90;;
74920;SDS011;63483;47.384;8.860;2022-10-30T11:56:00;6.03;;;2.75;;
74920;SDS011;63483;47.384;8.860;2022-10-30T11:58:32;12.50;;;2.93;;
74920;SDS011;63483;47.384;8.860;2022-10-30T12:01:03;9.77;;;2.90;;
74920;SDS011;63483;47.384;8.860;2022-10-30T12:03:34;8.13;;;3.35;;
74920;SDS011;63483;47.384;8.860;2022-10-30T12:09:11;8.15;;;3.28;;
74920;SDS011;63483;47.384;8.860;2022-10-30T12:11:37;7.70;;;3.40;;
74920;SDS011;63483;47.384;8.860;2022-10-30T12:14:12;12.10;;;3.50;;
74920;SDS011;63483;47.384;8.860;2022-10-30T12:16:48;7.95;;;3.10;;
74920;SDS011;63483;47.384;8.860;2022-10-30T12:19:16;9.40;;;3.55;;
74920;SDS011;63483;47.384;8.860;2022-10-30T12:21:47;11.27;;;2.75;;
74920;SDS011;63483;47.384;8.860;2022-10-30T12:24:27;8.53;;;2.80;;
74920;SDS011;63483;47.384;8.860;2022-10-30T12:26:54;7.25;;;3.55;;
74920;SDS011;63483;47.384;8.860;2022-10-30T12:29:21;7.50;;;3.67;;
74920;SDS011;63483;47.384;8.860;2022-10-30T12:37:04;9.10;;;3.53;;
74920;SDS011;63483;47.384;8.860;2022-10-30T12:42:10;9.30;;;3.78;;
74920;SDS011;63483;47.384;8.860;2022-10-30T12:44:40;7.65;;;3.58;;
74920;SDS011;63483;47.384;8.860;2022-10-30T12:49:50;9.40;;;3.10;;
74920;SDS011;63483;47.384;8.860;2022-10-30T12:52:23;8.18;;;3.63;;
74920;SDS011;63483;47.384;8.860;2022-10-30T12:55:08;7.88;;;3.65;;
74920;SDS011;63483;47.384;8.860;2022-10-30T12:57:51;7.20;;;3.50;;
74920;SDS011;63483;47.384;8.860;2022-10-30T13:00:24;10.90;;;2.67;;
74920;SDS011;63483;47.384;8.860;2022-10-30T13:02:56;6.90;;;2.83;;
74920;SDS011;63483;47.384;8.860;2022-10-30T13:05:45;7.05;;;3.50;;
74920;SDS011;63483;47.384;8.860;2022-10-30T13:11:20;9.10;;;4.05;;
74920;SDS011;63483;47.384;8.860;2022-10-30T13:14:07;8.45;;;4.05;;
74920;SDS011;63483;47.384;8.860;2022-10-30T13:16:38;12.03;;;4.37;;
74920;SDS011;63483;47.384;8.860;2022-10-30T13:19:04;11.17;;;4.07;;
74920;SDS011;63483;47.384;8.860;2022-10-30T13:21:36;10.82;;;4.22;;
74920;SDS011;63483;47.384;8.860;2022-10-30T13:27:20;9.02;;;3.97;;
74920;SDS011;63483;47.384;8.860;2022-10-30T13:32:40;9.30;;;3.53;;
74920;SDS011;63483;47.384;8.860;2022-10-30T13:43:36;7.85;;;3.72;;
74920;SDS011;63483;47.384;8.860;2022-10-30T13:46:26;10.53;;;2.80;;
74920;SDS011;63483;47.384;8.860;2022-10-30T13:49:27;6.82;;;2.40;;
74920;SDS011;63483;47.384;8.860;2022-10-30T13:54:31;7.80;;;2.95;;
74920;SDS011;63483;47.384;8.860;2022-10-30T13:57:03;8.73;;;2.85;;
74920;SDS011;63483;47.384;8.860;2022-10-30T14:04:57;10.88;;;3.47;;
74920;SDS011;63483;47.384;8.860;2022-10-30T14:07:40;7.47;;;2.83;;
74920;SDS011;63483;47.384;8.860;2022-10-30T14:12:51;8.00;;;2.93;;
74920;SDS011;63483;47.384;8.860;2022-10-30T14:23:14;7.28;;;2.42;;
74920;SDS011;63483;47.384;8.860;2022-10-30T14:28:36;7.73;;;2.97;;
74920;SDS011;63483;47.384;8.860;2022-10-30T14:31:04;11.68;;;3.92;;
74920;SDS011;63483;47.384;8.860;2022-10-30T14:33:41;13.88;;;3.85;;
74920;SDS011;63483;47.384;8.860;2022-10-30T14:38:41;16.65;;;3.83;;
74920;SDS011;63483;47.384;8.860;2022-10-30T14:43:46;13.35;;;3.22;;
74920;SDS011;63483;47.384;8.860;2022-10-30T14:52:12;8.85;;;3.47;;
74920;SDS011;63483;47.384;8.860;2022-10-30T14:55:04;6.63;;;3.03;;
74920;SDS011;63483;47.384;8.860;2022-10-30T14:57:52;7.80;;;3.47;;
74920;SDS011;63483;47.384;8.860;2022-10-30T15:05:43;7.70;;;2.95;;
74920;SDS011;63483;47.384;8.860;2022-10-30T15:11:05;30.60;;;10.70;;
74920;SDS011;63483;47.384;8.860;2022-10-30T15:13:33;38.33;;;11.90;;
74920;SDS011;63483;47.384;8.860;2022-10-30T15:16:00;18.87;;;5.80;;
74920;SDS011;63483;47.384;8.860;2022-10-30T15:18:29;12.25;;;5.13;;
74920;SDS011;63483;47.384;8.860;2022-10-30T15:20:55;12.80;;;4.63;;
74920;SDS011;63483;47.384;8.860;2022-10-30T15:23:27;7.43;;;3.67;;
74920;SDS011;63483;47.384;8.860;2022-10-30T15:25:56;9.15;;;3.72;;
74920;SDS011;63483;47.384;8.860;2022-10-30T15:28:25;11.90;;;3.97;;
74920;SDS011;63483;47.384;8.860;2022-10-30T15:33:42;7.57;;;3.88;;
74920;SDS011;63483;47.384;8.860;2022-10-30T15:36:15;7.93;;;4.00;;
74920;SDS011;63483;47.384;8.860;2022-10-30T15:41:40;10.23;;;3.93;;
74920;SDS011;63483;47.384;8.860;2022-10-30T15:44:09;9.55;;;4.20;;
74920;SDS011;63483;47.384;8.860;2022-10-30T15:46:36;7.82;;;3.90;;
74920;SDS011;63483;47.384;8.860;2022-10-30T15:49:02;8.57;;;4.03;;
74920;SDS011;63483;47.384;8.860;2022-10-30T15:51:28;9.80;;;4.00;;
74920;SDS011;63483;47.384;8.860;2022-10-30T15:53:55;7.83;;;4.00;;
74920;SDS011;63483;47.384;8.860;2022-10-30T15:56:26;8.82;;;3.50;;
74920;SDS011;63483;47.384;8.860;2022-10-30T15:58:59;7.97;;;3.67;;
74920;SDS011;63483;47.384;8.860;2022-10-30T16:01:34;5.78;;;3.65;;
74920;SDS011;63483;47.384;8.860;2022-10-30T16:04:16;9.23;;;4.28;;
74920;SDS011;63483;47.384;8.860;2022-10-30T16:06:52;9.67;;;3.70;;
74920;SDS011;63483;47.384;8.860;2022-10-30T16:09:23;9.25;;;3.30;;
74920;SDS011;63483;47.384;8.860;2022-10-30T16:11:50;9.80;;;4.07;;
74920;SDS011;63483;47.384;8.860;2022-10-30T16:14:22;10.93;;;3.80;;
74920;SDS011;63483;47.384;8.860;2022-10-30T16:16:49;9.75;;;4.10;;
74920;SDS011;63483;47.384;8.860;2022-10-30T16:19:22;11.40;;;4.37;;
74920;SDS011;63483;47.384;8.860;2022-10-30T16:21:52;13.75;;;5.35;;
74920;SDS011;63483;47.384;8.860;2022-10-30T16:24:20;10.18;;;4.88;;
74920;SDS011;63483;47.384;8.860;2022-10-30T16:29:28;8.48;;;5.13;;
74920;SDS011;63483;47.384;8.860;2022-10-30T16:31:55;8.53;;;4.67;;
74920;SDS011;63483;47.384;8.860;2022-10-30T16:34:22;8.13;;;4.00;;
74920;SDS011;63483;47.384;8.860;2022-10-30T16:36:55;9.88;;;4.35;;
74920;SDS011;63483;47.384;8.860;2022-10-30T16:39:21;12.40;;;5.30;;
74920;SDS011;63483;47.384;8.860;2022-10-30T16:41:48;12.85;;;5.57;;
74920;SDS011;63483;47.384;8.860;2022-10-30T16:47:12;10.35;;;5.40;;
74920;SDS011;63483;47.384;8.860;2022-10-30T16:49:50;9.02;;;4.65;;
74920;SDS011;63483;47.384;8.860;2022-10-30T16:52:19;10.57;;;4.68;;
74920;SDS011;63483;47.384;8.860;2022-10-30T16:54:57;8.10;;;4.47;;
74920;SDS011;63483;47.384;8.860;2022-10-30T16:57:28;13.13;;;5.15;;
74920;SDS011;63483;47.384;8.860;2022-10-30T16:59:57;11.15;;;4.70;;
74920;SDS011;63483;47.384;8.860;2022-10-30T17:02:28;9.57;;;4.18;;
74920;SDS011;63483;47.384;8.860;2022-10-30T17:07:36;11.30;;;4.80;;
74920;SDS011;63483;47.384;8.860;2022-10-30T17:10:03;8.43;;;4.30;;
74920;SDS011;63483;47.384;8.860;2022-10-30T17:13:25;12.07;;;5.10;;
74920;SDS011;63483;47.384;8.860;2022-10-30T17:15:57;10.60;;;5.63;;
74920;SDS011;63483;47.384;8.860;2022-10-30T17:18:27;11.98;;;5.35;;
74920;SDS011;63483;47.384;8.860;2022-10-30T17:21:19;13.67;;;6.57;;
74920;SDS011;63483;47.384;8.860;2022-10-30T17:23:52;10.07;;;4.45;;